sensor_id;sensor_type;location;lat;lon;timestamp;temperature;humidity
20512;DHT22;10414;52.074;5.126;2022-11-02T00:00:12;12.90;99.90
20512;DHT22;10414;52.074;5.126;2022-11-02T00:02:39;12.80;99.90
20512;DHT22;10414;52.074;5.126;2022-11-02T00:05:09;12.70;99.90
20512;DHT22;10414;52.074;5.126;2022-11-02T00:07:37;12.60;99.90
20512;DHT22;10414;52.074;5.126;2022-11-02T00:10:05;12.70;99.90
20512;DHT22;10414;52.074;5.126;2022-11-02T00:12:32;12.70;99.90
20512;DHT22;10414;52.074;5.126;2022-11-02T00:14:59;12.80;99.90
20512;DHT22;10414;52.074;5.126;2022-11-02T00:17:28;12.70;99.90
20512;DHT22;10414;52.074;5.126;2022-11-02T00:19:55;12.80;99.90
20512;DHT22;10414;52.074;5.126;2022-11-02T00:22:22;12.80;99.90
20512;DHT22;10414;52.074;5.126;2022-11-02T00:24:50;12.70;99.90
20512;DHT22;10414;52.074;5.126;2022-11-02T00:27:17;12.90;99.90
20512;DHT22;10414;52.074;5.126;2022-11-02T00:29:44;12.80;99.90
20512;DHT22;10414;52.074;5.126;2022-11-02T00:32:11;12.80;99.90
20512;DHT22;10414;52.074;5.126;2022-11-02T00:34:38;12.80;99.90
20512;DHT22;10414;52.074;5.126;2022-11-02T00:37:04;12.80;99.90
20512;DHT22;10414;52.074;5.126;2022-11-02T00:39:31;12.70;99.90
20512;DHT22;10414;52.074;5.126;2022-11-02T00:41:59;12.70;99.90
20512;DHT22;10414;52.074;5.126;2022-11-02T00:44:26;12.70;99.90
20512;DHT22;10414;52.074;5.126;2022-11-02T00:46:53;12.70;99.90
20512;DHT22;10414;52.074;5.126;2022-11-02T00:49:21;12.70;99.90
20512;DHT22;10414;52.074;5.126;2022-11-02T00:51:48;12.80;99.90
20512;DHT22;10414;52.074;5.126;2022-11-02T00:54:14;12.80;99.90
20512;DHT22;10414;52.074;5.126;2022-11-02T00:56:41;12.90;99.90
20512;DHT22;10414;52.074;5.126;2022-11-02T00:59:09;12.70;99.90
20512;DHT22;10414;52.074;5.126;2022-11-02T01:01:36;12.60;99.90
20512;DHT22;10414;52.074;5.126;2022-11-02T01:04:03;12.40;99.90
20512;DHT22;10414;52.074;5.126;2022-11-02T01:06:30;12.30;99.90
20512;DHT22;10414;52.074;5.126;2022-11-02T01:08:57;12.20;99.90
20512;DHT22;10414;52.074;5.126;2022-11-02T01:11:24;12.10;99.90
20512;DHT22;10414;52.074;5.126;2022-11-02T01:13:51;12.00;99.90
20512;DHT22;10414;52.074;5.126;2022-11-02T01:16:20;12.00;99.90
20512;DHT22;10414;52.074;5.126;2022-11-02T01:18:50;11.90;99.90
20512;DHT22;10414;52.074;5.126;2022-11-02T01:21:17;11.90;99.90
20512;DHT22;10414;52.074;5.126;2022-11-02T01:23:44;11.80;99.90
20512;DHT22;10414;52.074;5.126;2022-11-02T01:26:12;11.80;99.90
20512;DHT22;10414;52.074;5.126;2022-11-02T01:28:40;11.70;99.90
20512;DHT22;10414;52.074;5.126;2022-11-02T01:31:08;11.60;99.90
20512;DHT22;10414;52.074;5.126;2022-11-02T01:33:37;11.50;99.90
20512;DHT22;10414;52.074;5.126;2022-11-02T01:36:05;11.30;99.90
20512;DHT22;10414;52.074;5.126;2022-11-02T01:38:32;11.30;99.90
20512;DHT22;10414;52.074;5.126;2022-11-02T01:40:59;11.20;99.90
20512;DHT22;10414;52.074;5.126;2022-11-02T01:43:27;11.00;99.90
20512;DHT22;10414;52.074;5.126;2022-11-02T01:45:58;11.10;99.90
20512;DHT22;10414;52.074;5.126;2022-11-02T01:48:31;11.10;99.90
20512;DHT22;10414;52.074;5.126;2022-11-02T01:51:02;11.10;99.90
20512;DHT22;10414;52.074;5.126;2022-11-02T01:53:32;11.00;99.90
20512;DHT22;10414;52.074;5.126;2022-11-02T01:56:00;11.00;99.90
20512;DHT22;10414;52.074;5.126;2022-11-02T01:58:27;10.90;99.90
20512;DHT22;10414;52.074;5.126;2022-11-02T02:00:55;10.80;99.90
20512;DHT22;10414;52.074;5.126;2022-11-02T02:03:22;10.80;99.90
20512;DHT22;10414;52.074;5.126;2022-11-02T02:06:01;10.80;99.90
20512;DHT22;10414;52.074;5.126;2022-11-02T02:08:35;10.80;99.90
20512;DHT22;10414;52.074;5.126;2022-11-02T02:11:24;10.80;99.90
20512;DHT22;10414;52.074;5.126;2022-11-02T02:13:53;10.80;99.90
20512;DHT22;10414;52.074;5.126;2022-11-02T02:16:30;10.80;99.90
20512;DHT22;10414;52.074;5.126;2022-11-02T02:19:07;10.90;99.90
20512;DHT22;10414;52.074;5.126;2022-11-02T02:21:48;10.90;99.90
20512;DHT22;10414;52.074;5.126;2022-11-02T02:24:46;10.90;99.90
20512;DHT22;10414;52.074;5.126;2022-11-02T02:27:19;10.90;99.90
20512;DHT22;10414;52.074;5.126;2022-11-02T02:30:03;10.90;99.90
20512;DHT22;10414;52.074;5.126;2022-11-02T02:32:37;11.00;99.90
20512;DHT22;10414;52.074;5.126;2022-11-02T02:35:16;11.10;99.90
20512;DHT22;10414;52.074;5.126;2022-11-02T02:37:53;11.20;99.90
20512;DHT22;10414;52.074;5.126;2022-11-02T02:40:24;11.30;99.90
20512;DHT22;10414;52.074;5.126;2022-11-02T02:42:56;11.30;99.90
20512;DHT22;10414;52.074;5.126;2022-11-02T02:45:30;11.40;99.90
20512;DHT22;10414;52.074;5.126;2022-11-02T02:48:01;11.50;99.90
20512;DHT22;10414;52.074;5.126;2022-11-02T02:50:33;11.70;99.90
20512;DHT22;10414;52.074;5.126;2022-11-02T02:53:05;11.60;99.90
20512;DHT22;10414;52.074;5.126;2022-11-02T02:55:36;11.50;99.90
20512;DHT22;10414;52.074;5.126;2022-11-02T02:58:12;11.50;99.90
20512;DHT22;10414;52.074;5.126;2022-11-02T03:00:42;11.60;99.90
20512;DHT22;10414;52.074;5.126;2022-11-02T03:03:10;11.60;99.90
20512;DHT22;10414;52.074;5.126;2022-11-02T03:05:37;11.60;99.90
20512;DHT22;10414;52.074;5.126;2022-11-02T03:08:08;11.60;99.90
20512;DHT22;10414;52.074;5.126;2022-11-02T03:10:40;11.70;99.90
20512;DHT22;10414;52.074;5.126;2022-11-02T03:13:20;11.80;99.90
20512;DHT22;10414;52.074;5.126;2022-11-02T03:15:57;11.70;99.90
20512;DHT22;10414;52.074;5.126;2022-11-02T03:18:33;11.90;99.90
20512;DHT22;10414;52.074;5.126;2022-11-02T03:21:08;11.90;99.90
20512;DHT22;10414;52.074;5.126;2022-11-02T03:23:40;11.80;99.90
20512;DHT22;10414;52.074;5.126;2022-11-02T03:26:11;11.80;99.90
20512;DHT22;10414;52.074;5.126;2022-11-02T03:28:54;11.70;99.90
20512;DHT22;10414;52.074;5.126;2022-11-02T03:31:32;11.80;99.90
20512;DHT22;10414;52.074;5.126;2022-11-02T03:34:07;11.80;99.90
20512;DHT22;10414;52.074;5.126;2022-11-02T03:36:38;11.90;99.90
20512;DHT22;10414;52.074;5.126;2022-11-02T03:39:07;11.80;99.90
20512;DHT22;10414;52.074;5.126;2022-11-02T03:41:37;11.90;99.90
20512;DHT22;10414;52.074;5.126;2022-11-02T03:44:07;11.90;99.90
20512;DHT22;10414;52.074;5.126;2022-11-02T03:46:40;11.90;99.90
20512;DHT22;10414;52.074;5.126;2022-11-02T03:49:11;12.00;99.90
20512;DHT22;10414;52.074;5.126;2022-11-02T03:51:41;12.00;99.90
20512;DHT22;10414;52.074;5.126;2022-11-02T03:54:14;12.10;99.90
20512;DHT22;10414;52.074;5.126;2022-11-02T03:56:45;12.20;99.90
20512;DHT22;10414;52.074;5.126;2022-11-02T03:59:14;12.20;99.90
20512;DHT22;10414;52.074;5.126;2022-11-02T04:01:44;12.20;99.90
20512;DHT22;10414;52.074;5.126;2022-11-02T04:04:12;12.20;99.90
20512;DHT22;10414;52.074;5.126;2022-11-02T04:06:40;12.20;99.90
20512;DHT22;10414;52.074;5.126;2022-11-02T04:09:08;12.20;99.90
20512;DHT22;10414;52.074;5.126;2022-11-02T04:11:35;12.30;99.90
20512;DHT22;10414;52.074;5.126;2022-11-02T04:14:25;12.40;99.90
20512;DHT22;10414;52.074;5.126;2022-11-02T04:17:09;12.40;99.90
20512;DHT22;10414;52.074;5.126;2022-11-02T04:19:54;12.40;99.90
20512;DHT22;10414;52.074;5.126;2022-11-02T04:22:23;12.40;99.90
20512;DHT22;10414;52.074;5.126;2022-11-02T04:25:12;12.40;99.90
20512;DHT22;10414;52.074;5.126;2022-11-02T04:27:44;12.40;99.90
20512;DHT22;10414;52.074;5.126;2022-11-02T04:30:13;12.30;99.90
20512;DHT22;10414;52.074;5.126;2022-11-02T04:32:42;12.30;99.90
20512;DHT22;10414;52.074;5.126;2022-11-02T04:35:27;12.20;99.90
20512;DHT22;10414;52.074;5.126;2022-11-02T04:37:54;12.30;99.90
20512;DHT22;10414;52.074;5.126;2022-11-02T04:40:39;12.40;99.90
20512;DHT22;10414;52.074;5.126;2022-11-02T04:43:06;12.40;99.90
20512;DHT22;10414;52.074;5.126;2022-11-02T04:45:33;12.50;99.90
20512;DHT22;10414;52.074;5.126;2022-11-02T04:48:02;12.40;99.90
20512;DHT22;10414;52.074;5.126;2022-11-02T04:50:29;12.40;99.90
20512;DHT22;10414;52.074;5.126;2022-11-02T04:52:56;12.40;99.90
20512;DHT22;10414;52.074;5.126;2022-11-02T04:55:24;12.30;99.90
20512;DHT22;10414;52.074;5.126;2022-11-02T04:57:52;12.20;99.90
20512;DHT22;10414;52.074;5.126;2022-11-02T05:00:20;12.10;99.90
20512;DHT22;10414;52.074;5.126;2022-11-02T05:02:47;12.00;99.90
20512;DHT22;10414;52.074;5.126;2022-11-02T05:05:16;12.10;99.90
20512;DHT22;10414;52.074;5.126;2022-11-02T05:07:43;12.00;99.90
20512;DHT22;10414;52.074;5.126;2022-11-02T05:10:10;12.00;99.90
20512;DHT22;10414;52.074;5.126;2022-11-02T05:12:37;11.90;99.90
20512;DHT22;10414;52.074;5.126;2022-11-02T05:15:05;11.90;99.90
20512;DHT22;10414;52.074;5.126;2022-11-02T05:17:32;11.90;99.90
20512;DHT22;10414;52.074;5.126;2022-11-02T05:19:59;11.90;99.90
20512;DHT22;10414;52.074;5.126;2022-11-02T05:22:27;11.80;99.90
20512;DHT22;10414;52.074;5.126;2022-11-02T05:24:54;11.80;99.90
20512;DHT22;10414;52.074;5.126;2022-11-02T05:27:22;11.80;99.90
20512;DHT22;10414;52.074;5.126;2022-11-02T05:29:49;11.70;99.90
20512;DHT22;10414;52.074;5.126;2022-11-02T05:32:15;11.70;99.90
20512;DHT22;10414;52.074;5.126;2022-11-02T05:34:42;11.80;99.90
20512;DHT22;10414;52.074;5.126;2022-11-02T05:37:09;11.80;99.90
20512;DHT22;10414;52.074;5.126;2022-11-02T05:39:37;11.90;99.90
20512;DHT22;10414;52.074;5.126;2022-11-02T05:42:04;12.00;99.90
20512;DHT22;10414;52.074;5.126;2022-11-02T05:44:31;12.00;99.90
20512;DHT22;10414;52.074;5.126;2022-11-02T05:46:58;12.00;99.90
20512;DHT22;10414;52.074;5.126;2022-11-02T05:49:25;12.00;99.90
20512;DHT22;10414;52.074;5.126;2022-11-02T05:51:52;12.00;99.90
20512;DHT22;10414;52.074;5.126;2022-11-02T05:54:20;12.00;99.90
20512;DHT22;10414;52.074;5.126;2022-11-02T05:56:48;12.00;99.90
20512;DHT22;10414;52.074;5.126;2022-11-02T05:59:15;11.90;99.90
20512;DHT22;10414;52.074;5.126;2022-11-02T06:01:42;11.90;99.90
20512;DHT22;10414;52.074;5.126;2022-11-02T06:04:08;12.00;99.90
20512;DHT22;10414;52.074;5.126;2022-11-02T06:06:35;12.00;99.90
20512;DHT22;10414;52.074;5.126;2022-11-02T06:09:02;12.00;99.90
20512;DHT22;10414;52.074;5.126;2022-11-02T06:11:29;12.00;99.90
20512;DHT22;10414;52.074;5.126;2022-11-02T06:14:00;11.90;99.90
20512;DHT22;10414;52.074;5.126;2022-11-02T06:16:28;11.90;99.90
20512;DHT22;10414;52.074;5.126;2022-11-02T06:18:56;11.80;99.90
20512;DHT22;10414;52.074;5.126;2022-11-02T06:21:23;11.70;99.90
20512;DHT22;10414;52.074;5.126;2022-11-02T06:23:50;11.70;99.90
20512;DHT22;10414;52.074;5.126;2022-11-02T06:26:17;11.70;99.90
20512;DHT22;10414;52.074;5.126;2022-11-02T06:28:43;11.70;99.90
20512;DHT22;10414;52.074;5.126;2022-11-02T06:31:12;11.70;99.90
20512;DHT22;10414;52.074;5.126;2022-11-02T06:33:42;11.70;99.90
20512;DHT22;10414;52.074;5.126;2022-11-02T06:36:09;11.70;99.90
20512;DHT22;10414;52.074;5.126;2022-11-02T06:38:36;11.70;99.90
20512;DHT22;10414;52.074;5.126;2022-11-02T06:41:04;11.80;99.90
20512;DHT22;10414;52.074;5.126;2022-11-02T06:43:31;11.90;99.90
20512;DHT22;10414;52.074;5.126;2022-11-02T06:45:59;11.90;99.90
20512;DHT22;10414;52.074;5.126;2022-11-02T06:48:28;11.80;99.90
20512;DHT22;10414;52.074;5.126;2022-11-02T06:50:56;11.80;99.90
20512;DHT22;10414;52.074;5.126;2022-11-02T06:53:23;11.80;99.90
20512;DHT22;10414;52.074;5.126;2022-11-02T06:55:51;11.90;99.90
20512;DHT22;10414;52.074;5.126;2022-11-02T06:58:19;11.90;99.90
20512;DHT22;10414;52.074;5.126;2022-11-02T07:00:46;11.90;99.90
20512;DHT22;10414;52.074;5.126;2022-11-02T07:03:13;11.90;99.90
20512;DHT22;10414;52.074;5.126;2022-11-02T07:05:41;11.90;99.90
20512;DHT22;10414;52.074;5.126;2022-11-02T07:08:08;12.00;99.90
20512;DHT22;10414;52.074;5.126;2022-11-02T07:10:35;12.00;99.90
20512;DHT22;10414;52.074;5.126;2022-11-02T07:13:02;12.00;99.90
20512;DHT22;10414;52.074;5.126;2022-11-02T07:15:29;11.90;99.90
20512;DHT22;10414;52.074;5.126;2022-11-02T07:17:56;11.90;99.90
20512;DHT22;10414;52.074;5.126;2022-11-02T07:20:23;11.90;99.90
20512;DHT22;10414;52.074;5.126;2022-11-02T07:22:55;12.00;99.90
20512;DHT22;10414;52.074;5.126;2022-11-02T07:25:23;11.90;99.90
20512;DHT22;10414;52.074;5.126;2022-11-02T07:27:52;12.00;99.90
20512;DHT22;10414;52.074;5.126;2022-11-02T07:30:19;12.00;99.90
20512;DHT22;10414;52.074;5.126;2022-11-02T07:32:46;12.00;99.90
20512;DHT22;10414;52.074;5.126;2022-11-02T07:35:14;12.10;99.90
20512;DHT22;10414;52.074;5.126;2022-11-02T07:37:42;12.20;99.90
20512;DHT22;10414;52.074;5.126;2022-11-02T07:40:11;12.20;99.90
20512;DHT22;10414;52.074;5.126;2022-11-02T07:42:43;12.20;99.90
20512;DHT22;10414;52.074;5.126;2022-11-02T07:45:11;12.40;99.90
20512;DHT22;10414;52.074;5.126;2022-11-02T07:47:42;12.60;99.90
20512;DHT22;10414;52.074;5.126;2022-11-02T07:50:10;12.60;99.90
20512;DHT22;10414;52.074;5.126;2022-11-02T07:52:43;13.00;99.90
20512;DHT22;10414;52.074;5.126;2022-11-02T07:55:12;14.70;99.90
20512;DHT22;10414;52.074;5.126;2022-11-02T07:57:39;15.90;99.90
20512;DHT22;10414;52.074;5.126;2022-11-02T08:00:09;17.20;99.90
20512;DHT22;10414;52.074;5.126;2022-11-02T08:02:36;17.80;99.90
20512;DHT22;10414;52.074;5.126;2022-11-02T08:05:04;18.40;99.90
20512;DHT22;10414;52.074;5.126;2022-11-02T08:07:31;19.10;99.90
20512;DHT22;10414;52.074;5.126;2022-11-02T08:09:58;19.80;99.90
20512;DHT22;10414;52.074;5.126;2022-11-02T08:12:26;19.40;99.90
20512;DHT22;10414;52.074;5.126;2022-11-02T08:14:53;19.60;99.90
20512;DHT22;10414;52.074;5.126;2022-11-02T08:17:21;19.70;99.90
20512;DHT22;10414;52.074;5.126;2022-11-02T08:19:50;19.30;99.90
20512;DHT22;10414;52.074;5.126;2022-11-02T08:22:17;18.50;99.90
20512;DHT22;10414;52.074;5.126;2022-11-02T08:24:47;18.20;99.90
20512;DHT22;10414;52.074;5.126;2022-11-02T08:27:13;18.80;99.90
20512;DHT22;10414;52.074;5.126;2022-11-02T08:29:42;19.10;99.90
20512;DHT22;10414;52.074;5.126;2022-11-02T08:32:11;20.20;99.90
20512;DHT22;10414;52.074;5.126;2022-11-02T08:34:38;20.10;99.90
20512;DHT22;10414;52.074;5.126;2022-11-02T08:37:06;20.80;99.90
20512;DHT22;10414;52.074;5.126;2022-11-02T08:39:34;20.70;99.90
20512;DHT22;10414;52.074;5.126;2022-11-02T08:42:01;20.90;99.70
20512;DHT22;10414;52.074;5.126;2022-11-02T08:44:28;21.00;99.60
20512;DHT22;10414;52.074;5.126;2022-11-02T08:46:56;22.00;98.70
20512;DHT22;10414;52.074;5.126;2022-11-02T08:49:23;21.90;98.40
20512;DHT22;10414;52.074;5.126;2022-11-02T08:51:50;21.70;98.60
20512;DHT22;10414;52.074;5.126;2022-11-02T08:54:17;21.60;98.60
20512;DHT22;10414;52.074;5.126;2022-11-02T08:56:44;22.10;97.80
20512;DHT22;10414;52.074;5.126;2022-11-02T08:59:11;22.90;97.10
20512;DHT22;10414;52.074;5.126;2022-11-02T09:01:38;22.50;97.40
20512;DHT22;10414;52.074;5.126;2022-11-02T09:04:06;22.70;97.10
20512;DHT22;10414;52.074;5.126;2022-11-02T09:06:33;22.80;97.10
20512;DHT22;10414;52.074;5.126;2022-11-02T09:09:00;22.10;98.20
20512;DHT22;10414;52.074;5.126;2022-11-02T09:11:27;22.20;97.70
20512;DHT22;10414;52.074;5.126;2022-11-02T09:13:54;21.90;97.90
20512;DHT22;10414;52.074;5.126;2022-11-02T09:16:22;22.20;97.80
20512;DHT22;10414;52.074;5.126;2022-11-02T09:18:50;21.90;97.80
20512;DHT22;10414;52.074;5.126;2022-11-02T09:21:18;21.30;98.80
20512;DHT22;10414;52.074;5.126;2022-11-02T09:23:46;21.10;98.90
20512;DHT22;10414;52.074;5.126;2022-11-02T09:26:13;21.20;99.00
20512;DHT22;10414;52.074;5.126;2022-11-02T09:28:40;21.00;99.20
20512;DHT22;10414;52.074;5.126;2022-11-02T09:31:07;21.30;98.80
20512;DHT22;10414;52.074;5.126;2022-11-02T09:33:34;20.50;99.20
20512;DHT22;10414;52.074;5.126;2022-11-02T09:36:02;20.50;99.60
20512;DHT22;10414;52.074;5.126;2022-11-02T09:38:31;20.60;99.40
20512;DHT22;10414;52.074;5.126;2022-11-02T09:41:07;20.20;99.60
20512;DHT22;10414;52.074;5.126;2022-11-02T09:43:47;20.60;99.20
20512;DHT22;10414;52.074;5.126;2022-11-02T09:46:18;20.40;99.40
20512;DHT22;10414;52.074;5.126;2022-11-02T09:48:49;20.60;99.40
20512;DHT22;10414;52.074;5.126;2022-11-02T09:51:19;20.60;98.80
20512;DHT22;10414;52.074;5.126;2022-11-02T09:53:55;20.20;99.40
20512;DHT22;10414;52.074;5.126;2022-11-02T09:56:26;20.50;99.20
20512;DHT22;10414;52.074;5.126;2022-11-02T09:58:58;20.40;99.10
20512;DHT22;10414;52.074;5.126;2022-11-02T10:01:38;20.20;99.90
20512;DHT22;10414;52.074;5.126;2022-11-02T10:04:27;20.50;99.60
20512;DHT22;10414;52.074;5.126;2022-11-02T10:07:02;20.40;99.60
20512;DHT22;10414;52.074;5.126;2022-11-02T10:09:36;19.80;99.90
20512;DHT22;10414;52.074;5.126;2022-11-02T10:12:10;19.30;99.90
20512;DHT22;10414;52.074;5.126;2022-11-02T10:14:44;19.30;99.90
20512;DHT22;10414;52.074;5.126;2022-11-02T10:17:16;19.60;99.90
20512;DHT22;10414;52.074;5.126;2022-11-02T10:19:48;19.90;99.90
20512;DHT22;10414;52.074;5.126;2022-11-02T10:22:16;19.30;99.90
20512;DHT22;10414;52.074;5.126;2022-11-02T10:24:45;19.60;99.90
20512;DHT22;10414;52.074;5.126;2022-11-02T10:27:16;19.60;99.90
20512;DHT22;10414;52.074;5.126;2022-11-02T10:29:50;20.00;99.90
20512;DHT22;10414;52.074;5.126;2022-11-02T10:32:18;19.60;99.90
20512;DHT22;10414;52.074;5.126;2022-11-02T10:34:45;19.00;99.90
20512;DHT22;10414;52.074;5.126;2022-11-02T10:37:30;19.50;99.90
20512;DHT22;10414;52.074;5.126;2022-11-02T10:40:07;19.00;99.90
20512;DHT22;10414;52.074;5.126;2022-11-02T10:42:51;19.60;99.90
20512;DHT22;10414;52.074;5.126;2022-11-02T10:48:41;19.80;99.90
20512;DHT22;10414;52.074;5.126;2022-11-02T10:51:10;20.30;99.90
20512;DHT22;10414;52.074;5.126;2022-11-02T10:53:39;19.60;99.90
20512;DHT22;10414;52.074;5.126;2022-11-02T10:56:14;19.70;99.90
20512;DHT22;10414;52.074;5.126;2022-11-02T10:58:46;19.60;99.90
20512;DHT22;10414;52.074;5.126;2022-11-02T11:01:15;19.10;99.90
20512;DHT22;10414;52.074;5.126;2022-11-02T11:03:57;18.90;99.90
20512;DHT22;10414;52.074;5.126;2022-11-02T11:06:26;19.10;99.90
20512;DHT22;10414;52.074;5.126;2022-11-02T11:08:58;18.40;99.90
20512;DHT22;10414;52.074;5.126;2022-11-02T11:11:30;18.10;99.90
20512;DHT22;10414;52.074;5.126;2022-11-02T11:13:59;18.20;99.90
20512;DHT22;10414;52.074;5.126;2022-11-02T11:16:36;18.00;99.90
20512;DHT22;10414;52.074;5.126;2022-11-02T11:19:06;18.50;99.90
20512;DHT22;10414;52.074;5.126;2022-11-02T11:21:44;18.40;99.90
20512;DHT22;10414;52.074;5.126;2022-11-02T11:24:23;18.00;99.90
20512;DHT22;10414;52.074;5.126;2022-11-02T11:27:13;17.60;99.90
20512;DHT22;10414;52.074;5.126;2022-11-02T11:29:46;17.60;99.90
20512;DHT22;10414;52.074;5.126;2022-11-02T11:32:15;18.00;99.90
20512;DHT22;10414;52.074;5.126;2022-11-02T11:34:43;17.90;99.90
20512;DHT22;10414;52.074;5.126;2022-11-02T11:37:14;17.80;99.90
20512;DHT22;10414;52.074;5.126;2022-11-02T11:39:44;17.20;99.90
20512;DHT22;10414;52.074;5.126;2022-11-02T11:42:18;17.20;99.90
20512;DHT22;10414;52.074;5.126;2022-11-02T11:44:54;17.10;99.90
20512;DHT22;10414;52.074;5.126;2022-11-02T11:47:25;16.80;99.90
20512;DHT22;10414;52.074;5.126;2022-11-02T11:49:53;16.50;99.90
20512;DHT22;10414;52.074;5.126;2022-11-02T11:52:23;16.40;99.90
20512;DHT22;10414;52.074;5.126;2022-11-02T11:54:51;16.30;99.90
20512;DHT22;10414;52.074;5.126;2022-11-02T11:57:24;16.00;99.90
20512;DHT22;10414;52.074;5.126;2022-11-02T11:59:53;15.80;99.90
20512;DHT22;10414;52.074;5.126;2022-11-02T12:02:24;15.70;99.90
20512;DHT22;10414;52.074;5.126;2022-11-02T12:04:58;15.60;99.90
20512;DHT22;10414;52.074;5.126;2022-11-02T12:07:50;15.70;99.90
20512;DHT22;10414;52.074;5.126;2022-11-02T12:10:29;15.90;99.90
20512;DHT22;10414;52.074;5.126;2022-11-02T12:13:13;15.80;99.90
20512;DHT22;10414;52.074;5.126;2022-11-02T12:15:50;15.80;99.90
20512;DHT22;10414;52.074;5.126;2022-11-02T12:18:32;15.50;99.90
20512;DHT22;10414;52.074;5.126;2022-11-02T12:21:11;15.50;99.90
20512;DHT22;10414;52.074;5.126;2022-11-02T12:23:58;15.50;99.90
20512;DHT22;10414;52.074;5.126;2022-11-02T12:26:35;15.50;99.90
20512;DHT22;10414;52.074;5.126;2022-11-02T12:29:50;15.60;99.90
20512;DHT22;10414;52.074;5.126;2022-11-02T12:35:22;15.70;99.90
20512;DHT22;10414;52.074;5.126;2022-11-02T12:38:03;15.60;99.90
20512;DHT22;10414;52.074;5.126;2022-11-02T12:40:44;15.60;99.90
20512;DHT22;10414;52.074;5.126;2022-11-02T12:43:27;15.60;99.90
20512;DHT22;10414;52.074;5.126;2022-11-02T12:46:01;15.70;99.90
20512;DHT22;10414;52.074;5.126;2022-11-02T12:48:37;15.70;99.90
20512;DHT22;10414;52.074;5.126;2022-11-02T12:51:09;15.70;99.90
20512;DHT22;10414;52.074;5.126;2022-11-02T12:53:44;16.00;99.90
20512;DHT22;10414;52.074;5.126;2022-11-02T12:56:17;16.20;99.90
20512;DHT22;10414;52.074;5.126;2022-11-02T12:58:45;15.90;99.90
20512;DHT22;10414;52.074;5.126;2022-11-02T13:01:19;15.90;99.90
20512;DHT22;10414;52.074;5.126;2022-11-02T13:03:52;15.90;99.90
20512;DHT22;10414;52.074;5.126;2022-11-02T13:06:25;16.10;99.90
20512;DHT22;10414;52.074;5.126;2022-11-02T13:08:58;15.80;99.90
20512;DHT22;10414;52.074;5.126;2022-11-02T13:11:30;15.70;99.90
20512;DHT22;10414;52.074;5.126;2022-11-02T13:13:58;15.60;99.90
20512;DHT22;10414;52.074;5.126;2022-11-02T13:16:36;15.40;99.90
20512;DHT22;10414;52.074;5.126;2022-11-02T13:19:08;15.40;99.90
20512;DHT22;10414;52.074;5.126;2022-11-02T13:21:41;15.30;99.90
20512;DHT22;10414;52.074;5.126;2022-11-02T13:24:12;15.40;99.90
20512;DHT22;10414;52.074;5.126;2022-11-02T13:26:42;15.40;99.90
20512;DHT22;10414;52.074;5.126;2022-11-02T13:29:14;15.50;99.90
20512;DHT22;10414;52.074;5.126;2022-11-02T13:31:46;15.40;99.90
20512;DHT22;10414;52.074;5.126;2022-11-02T13:34:18;15.40;99.90
20512;DHT22;10414;52.074;5.126;2022-11-02T13:36:48;15.40;99.90
20512;DHT22;10414;52.074;5.126;2022-11-02T13:39:18;15.20;99.90
20512;DHT22;10414;52.074;5.126;2022-11-02T13:45:22;15.40;99.90
20512;DHT22;10414;52.074;5.126;2022-11-02T13:48:16;15.60;99.90
20512;DHT22;10414;52.074;5.126;2022-11-02T13:50:49;15.60;99.90
20512;DHT22;10414;52.074;5.126;2022-11-02T13:53:20;15.60;99.90
20512;DHT22;10414;52.074;5.126;2022-11-02T13:55:51;15.70;99.90
20512;DHT22;10414;52.074;5.126;2022-11-02T13:58:22;15.80;99.90
20512;DHT22;10414;52.074;5.126;2022-11-02T14:00:57;15.70;99.90
20512;DHT22;10414;52.074;5.126;2022-11-02T14:03:27;15.80;99.90
20512;DHT22;10414;52.074;5.126;2022-11-02T14:05:59;15.70;99.90
20512;DHT22;10414;52.074;5.126;2022-11-02T14:08:32;15.60;99.90
20512;DHT22;10414;52.074;5.126;2022-11-02T14:11:20;15.60;99.90
20512;DHT22;10414;52.074;5.126;2022-11-02T14:14:15;15.60;99.90
20512;DHT22;10414;52.074;5.126;2022-11-02T14:16:44;15.60;99.90
20512;DHT22;10414;52.074;5.126;2022-11-02T14:19:23;15.50;99.90
20512;DHT22;10414;52.074;5.126;2022-11-02T14:22:11;15.50;99.90
20512;DHT22;10414;52.074;5.126;2022-11-02T14:27:33;15.60;99.90
20512;DHT22;10414;52.074;5.126;2022-11-02T14:30:01;15.70;99.90
20512;DHT22;10414;52.074;5.126;2022-11-02T14:32:47;15.60;99.90
20512;DHT22;10414;52.074;5.126;2022-11-02T14:35:34;15.50;99.90
20512;DHT22;10414;52.074;5.126;2022-11-02T14:38:35;15.50;99.90
20512;DHT22;10414;52.074;5.126;2022-11-02T14:41:15;15.60;99.90
20512;DHT22;10414;52.074;5.126;2022-11-02T14:44:02;15.90;99.90
20512;DHT22;10414;52.074;5.126;2022-11-02T14:46:50;15.90;99.90
20512;DHT22;10414;52.074;5.126;2022-11-02T14:49:24;15.80;99.90
20512;DHT22;10414;52.074;5.126;2022-11-02T14:52:02;15.50;99.90
20512;DHT22;10414;52.074;5.126;2022-11-02T14:54:32;15.40;99.90
20512;DHT22;10414;52.074;5.126;2022-11-02T14:57:05;15.30;99.90
20512;DHT22;10414;52.074;5.126;2022-11-02T14:59:34;15.30;99.90
20512;DHT22;10414;52.074;5.126;2022-11-02T15:02:08;15.30;99.90
20512;DHT22;10414;52.074;5.126;2022-11-02T15:04:46;15.20;99.90
20512;DHT22;10414;52.074;5.126;2022-11-02T15:07:19;15.00;99.90
20512;DHT22;10414;52.074;5.126;2022-11-02T15:09:53;14.80;99.90
20512;DHT22;10414;52.074;5.126;2022-11-02T15:12:30;14.70;99.90
20512;DHT22;10414;52.074;5.126;2022-11-02T15:14:59;14.70;99.90
20512;DHT22;10414;52.074;5.126;2022-11-02T15:17:49;14.60;99.90
20512;DHT22;10414;52.074;5.126;2022-11-02T15:20:25;14.50;99.90
20512;DHT22;10414;52.074;5.126;2022-11-02T15:22:57;14.40;99.90
20512;DHT22;10414;52.074;5.126;2022-11-02T15:25:29;14.50;99.90
20512;DHT22;10414;52.074;5.126;2022-11-02T15:28:04;14.50;99.90
20512;DHT22;10414;52.074;5.126;2022-11-02T15:30:32;14.40;99.90
20512;DHT22;10414;52.074;5.126;2022-11-02T15:33:05;14.30;99.90
20512;DHT22;10414;52.074;5.126;2022-11-02T15:35:33;14.10;99.90
20512;DHT22;10414;52.074;5.126;2022-11-02T15:38:05;14.10;99.90
20512;DHT22;10414;52.074;5.126;2022-11-02T15:40:34;14.10;99.90
20512;DHT22;10414;52.074;5.126;2022-11-02T15:43:17;14.10;99.90
20512;DHT22;10414;52.074;5.126;2022-11-02T15:45:52;14.10;99.90
20512;DHT22;10414;52.074;5.126;2022-11-02T15:48:34;14.00;99.90
20512;DHT22;10414;52.074;5.126;2022-11-02T15:51:10;14.10;99.90
20512;DHT22;10414;52.074;5.126;2022-11-02T15:54:03;13.90;99.90
20512;DHT22;10414;52.074;5.126;2022-11-02T15:56:53;13.80;99.90
20512;DHT22;10414;52.074;5.126;2022-11-02T15:59:40;13.70;99.90
20512;DHT22;10414;52.074;5.126;2022-11-02T16:02:17;13.70;99.90
20512;DHT22;10414;52.074;5.126;2022-11-02T16:04:48;13.60;99.90
20512;DHT22;10414;52.074;5.126;2022-11-02T16:07:16;13.60;99.90
20512;DHT22;10414;52.074;5.126;2022-11-02T16:09:46;13.50;99.90